Piacenza, Italy

11:02 PM CEST on September 01, 2014 (GMT +0200)
Carpaneto Piacentino | Change Station
CLOSE
Current Station
Personal Weather Station
Location: Rezzano, EMILIA-ROMAGNA
Elevation: 545 ft
Nearby Weather Stations
Active Advisory: Thunderstorms

Elev 545 ft 44.88 °N, 9.80 °E | Updated 10 minutes ago

Clear
Clear
58.5 °F
Feels Like 58.5 °F
N
2.0
Wind Variable Wind from SE

Today
High -- | Low -- °F
--% Chance of Precip.
Yesterday
High -- | Low -- °F
Precip. -- in
6:42 AM 7:58 PM
Waxing Crescent, 44% visible
Pressure 29.86 in
Visibility -9999.0 miles
Clouds
Dew Point 54 °F
Humidity 86%
Rainfall 0.00 in
Snow Depth Not available.
UV Not available.
Pollen Not available.
Air Quality Not available.
Flu Activity Not available.
METAR LIML 012050Z 34005KT 300V010 CAVOK 21/05 Q1011 NOSIG

More Conditions Fewer Conditions

Pressure 29.86 in
Visibility -9999.0 miles
Clouds
Dew Point 54 °F
Humidity 86%
Rainfall 0.00 in
Snow Depth Not available.
UV Not available.
Pollen Not available.
Air Quality Not available.
Flu Activity Not available.
METAR LIML 012050Z 34005KT 300V010 CAVOK 21/05 Q1011 NOSIG

More Conditions Fewer Conditions

10-Day Weather Forecast

Almanac

Astronomy

Sep. 01, 2014 Rise Set
Actual Time 6:42 AM CEST 7:58 PM CEST
Civil Twilight 6:12 AM CEST 8:28 PM CEST
Nautical Twilight 5:36 AM CEST 9:05 PM CEST
Astronomical Twilight 4:57 AM CEST 9:43 PM CEST
Moon 1:29 PM CEST 11:28 PM CEST
Length of Visible Light 14h 16m
Length of Day
13h 15m
Tomorrow will be 3m 0s shorter.
Waxing Crescent, 44% of the Moon is Illuminated
Today
Waxing Crescent
Sep 2
First Quarter
Sep 8
Full
Sep 15
Last Quarter
Sep 24
New

Today's Extremes

Country Highs Country Lows

Community

WunderPhotos

Upload Photos

1,749,407 photos uploaded!

WunderBlogs® & News

Nearby

Snow Depth

Not available.

Earthquake Activity

City Distance Mag. Time & Date
No recent earthquake activity has been reported nearby.
Minimum magnitude displayed is 2.5.

Coastal Water Temperatures

Place Temperature
No Stations Reporting

Nearby Weather Stations